Estación Meteorológica Peña el Pijo (Robertgarden) [ 06/24/19 13:06:13 CEST ]

Fecha Hora Presion(HPa) Temp (°C) Humedad % Rocio (°C) Viento ( m/s) Direccion Lluvia 1Hora(mm) Lluvia 24H(mm) LLuvia Total(mm)
2019-Feb-01 01:01:51 991.200 9.5 68 3.9 2.8 WNW   2.59 170.94
2019-Feb-01 02:01:41 989.500 9.3 70 4.1 2.5 WNW   2.07 170.94
2019-Feb-01 03:01:45 988.400 9.3 73 4.7 4.9 N   2.07 170.94
2019-Feb-01 04:05:15 987.300 8.9 77 5.0 1.8 WNW   2.07 170.94
2019-Feb-01 05:01:47 986.400 8.9 78 5.2 1.6 WNW   1.55 170.94
2019-Feb-01 06:01:49 985.900 8.6 80 5.3 1.3 WNW 0.51 1.55 171.45
2019-Feb-01 07:01:59 985.700 8.3 82 5.4       1.03 171.45
2019-Feb-01 08:01:42 986.200 7.5 84 5.0 1.7 WNW 2.07 3.10 173.53
2019-Feb-01 09:01:48 986.800 6.7 85 4.3     4.14 6.73 177.67
2019-Feb-01 10:01:39 986.600 9.1 85 6.7 0.7 NNW 1.03 7.77 178.71
2019-Feb-01 11:01:54 988.200 7.8 82 4.9 1.5 NNW   7.77 178.71
2019-Feb-01 12:01:43 988.400 7.6 75 3.4 1.7 NE   7.77 178.71
2019-Feb-01 13:01:38 988.400 7.8 69 2.5 2.4 WNW   7.77 178.71
2019-Feb-01 14:02:03 988.000 6.3 76 2.4 1.9 WNW   7.77 178.71
2019-Feb-01 15:01:43 987.800 7.8 70 2.7 4.2 NNW   7.77 178.71
2019-Feb-01 16:01:49 987.800 5.6 73 1.1       7.77 178.71
2019-Feb-01 17:01:44 987.100 6.2 69 1.0 4.1 WNW   7.77 178.71
2019-Feb-01 18:01:41 986.800 5.0 73 0.5       7.77 178.71
2019-Feb-01 19:02:06 986.300 5.3 71 0.5 1.4 WNW   7.77 178.71
2019-Feb-01 20:01:36 987.700 3.2 80 0.1     1.55 9.32 180.26
2019-Feb-01 21:01:48 988.600 2.6 82 -0.2 3.1 WNW 0.51 9.84 180.78
2019-Feb-01 22:01:41 989.300 2.8 78 -0.7       9.84 180.78
2019-Feb-01 23:01:50 989.600 2.6 77 -1.0       9.84 180.78

Temperatura Máxima:    Temperatura Mínima:
Presión Máxima:991.200 Hpa    Presión Mínima:985.700 Hpa


Volver